Main page
METAR-TAF:

METAR-TAF

Airports :

Odessa International Airport

Odessa, Ukraine

latitude: 46-26N, longitude: 030-46E, elevation: 42 m

Current weather observation

The report was made 16 minutes ago, at 01:30 UTC
Wind 8 kt from the West
Temperature 2°C
Humidity 60%
Pressure 1025 hPa
Visibility 10 km or more
Scattered clouds at a height of 2000 ft

METAR: UKOO 220130Z 28004MPS 9999 SCT020 02/M05 Q1025 R34/090060 NOSIG

Time: 03:46 (01:46 UTC)

Forecast

The report was made 2 hours and 43 minutes ago, at 23:03 UTC
Forecast valid from 22 at 00 UTC to 22 at 24 UTC
Wind 14 kt from the West/Northwest with gusts up to 25 kt
Visibility: 6000 m
Broken clouds at a height of 700 ft
Temporary
from 22 at 18 UTC to 22 at 24 UTC
Wind 17 kt from the Northwest with gusts up to 31 kt

TAF: UKOO 212303Z 2200/2224 29007G13MPS 6000 BKN007 TX07/2212Z TN00/2205Z TEMPO 2218/2224 31009G16MPS

Weather observations and forecasts of more than 4000 airports (METAR and TAF reports).

The available stations are represented by yellow and red dots on the map.

Hover mouse over dot to see the name of the station.

Then click to see weather observations and forecasts.

To change the map : click on the green buttons with a black cross to zoom in, on the green button with a dash to zoom out, or on the green arrows for adjacent maps.


METAR-TAF: